createdAt,value
2018-06-05T00:01:52.406Z,8.93
2018-06-05T00:04:23.637Z,8.87
2018-06-05T00:06:54.396Z,9.20
2018-06-05T00:09:24.852Z,9.07
2018-06-05T00:11:55.775Z,9.30
2018-06-05T00:14:25.996Z,8.50
2018-06-05T00:16:57.543Z,9.15
2018-06-05T00:19:28.514Z,9.20
2018-06-05T00:22:00.552Z,9.00
2018-06-05T00:24:31.101Z,9.83
2018-06-05T00:27:01.816Z,8.97
2018-06-05T00:29:32.253Z,9.80
2018-06-05T00:32:02.733Z,9.67
2018-06-05T00:34:33.388Z,9.70
2018-06-05T00:37:03.958Z,8.55
2018-06-05T00:39:34.601Z,8.80
2018-06-05T00:42:06.315Z,9.65
2018-06-05T00:44:36.945Z,9.27
2018-06-05T00:47:07.543Z,8.75
2018-06-05T00:49:38.855Z,9.60
2018-06-05T00:52:10.888Z,8.90
2018-06-05T00:54:41.342Z,10.50
2018-06-05T00:57:12.308Z,9.47
2018-06-05T00:59:42.898Z,10.13
2018-06-05T01:02:13.353Z,10.00
2018-06-05T01:04:44.385Z,11.03
2018-06-05T01:07:15.369Z,10.70
2018-06-05T01:09:46.077Z,10.20
2018-06-05T01:12:16.693Z,10.00
2018-06-05T01:14:47.327Z,11.30
2018-06-05T01:17:19.049Z,11.20
2018-06-05T01:19:50.718Z,11.43
2018-06-05T01:22:21.318Z,11.87
2018-06-05T01:24:52.106Z,11.07
2018-06-05T01:27:23.680Z,10.93
2018-06-05T01:29:54.127Z,11.73
2018-06-05T01:32:25.933Z,10.67
2018-06-05T01:34:56.654Z,9.48
2018-06-05T01:37:27.243Z,8.60
2018-06-05T01:39:57.745Z,9.18
2018-06-05T01:42:28.664Z,10.50
2018-06-05T01:44:59.758Z,9.03
2018-06-05T01:47:30.332Z,8.47
2018-06-05T01:50:01.258Z,8.63
2018-06-05T01:52:32.972Z,9.17
2018-06-05T01:55:03.876Z,9.88
2018-06-05T01:57:35.522Z,9.10
2018-06-05T02:00:06.069Z,10.03
2018-06-05T02:02:36.541Z,9.00
2018-06-05T02:05:07.844Z,8.60
2018-06-05T02:07:38.469Z,8.77
2018-06-05T02:10:08.964Z,9.13
2018-06-05T02:12:39.585Z,9.13
2018-06-05T02:15:10.584Z,9.27
2018-06-05T02:17:41.068Z,8.03
2018-06-05T02:20:11.652Z,10.00
2018-06-05T02:22:42.104Z,9.93
2018-06-05T02:25:12.603Z,11.70
2018-06-05T02:27:43.358Z,10.90
2018-06-05T02:30:13.840Z,11.10
2018-06-05T02:32:44.298Z,11.23
2018-06-05T02:35:15.081Z,11.80
2018-06-05T02:37:46.769Z,11.47
2018-06-05T02:40:17.304Z,11.73
2018-06-05T02:42:47.805Z,12.30
2018-06-05T02:45:18.820Z,12.70
2018-06-05T02:47:50.180Z,10.60
2018-06-05T02:50:20.743Z,10.20
2018-06-05T02:52:51.220Z,12.40
2018-06-05T02:55:21.852Z,11.23
2018-06-05T02:57:52.769Z,10.93
2018-06-05T03:00:23.234Z,11.97
2018-06-05T03:02:53.741Z,12.40
2018-06-05T03:05:24.387Z,12.40
2018-06-05T03:07:54.892Z,11.55
2018-06-05T03:10:25.372Z,12.50
2018-06-05T03:12:56.487Z,11.08
2018-06-05T03:15:27.151Z,11.80
2018-06-05T03:17:58.832Z,12.43
2018-06-05T03:20:29.814Z,11.73
2018-06-05T03:23:01.277Z,12.03
2018-06-05T03:25:31.748Z,11.70
2018-06-05T03:28:02.247Z,12.15
2018-06-05T03:30:33.060Z,12.30
2018-06-05T03:33:04.034Z,12.93
2018-06-05T03:35:34.692Z,11.50
2018-06-05T03:38:05.604Z,12.23
2018-06-05T03:40:36.215Z,11.80
2018-06-05T03:43:07.091Z,12.20
2018-06-05T03:45:38.119Z,11.47
2018-06-05T03:48:08.615Z,13.40
2018-06-05T03:50:39.733Z,12.70
2018-06-05T03:53:10.492Z,12.77
2018-06-05T03:55:40.976Z,11.87
2018-06-05T03:58:11.401Z,12.93
2018-06-05T04:00:42.137Z,14.40
2018-06-05T04:03:12.878Z,11.93
2018-06-05T04:05:43.797Z,10.93
2018-06-05T04:08:14.309Z,11.17
2018-06-05T04:10:45.067Z,11.20
2018-06-05T04:13:15.582Z,11.80
2018-06-05T04:15:46.160Z,12.60
2018-06-05T04:18:16.598Z,13.20
2018-06-05T04:20:47.060Z,14.87
2018-06-05T04:23:17.300Z,15.07
2018-06-05T04:25:47.715Z,14.23
2018-06-05T04:28:19.708Z,14.20
2018-06-05T04:30:50.917Z,13.93
2018-06-05T04:33:21.519Z,15.00
2018-06-05T04:35:51.645Z,13.50
2018-06-05T04:38:22.047Z,13.70
2018-06-05T04:40:52.841Z,13.50
2018-06-05T04:43:23.874Z,13.50
2018-06-05T04:45:54.722Z,13.77
2018-06-05T04:48:25.379Z,12.90
2018-06-05T04:50:56.576Z,13.30
2018-06-05T04:53:27.349Z,17.70
2018-06-05T04:55:57.937Z,24.90
2018-06-05T04:58:28.580Z,27.73
2018-06-05T05:00:59.086Z,43.87
2018-06-05T05:03:29.769Z,31.20
2018-06-05T05:06:00.647Z,19.77
2018-06-05T05:08:31.288Z,15.20
2018-06-05T05:11:02.159Z,15.53
2018-06-05T05:13:32.716Z,17.10
2018-06-05T05:16:03.730Z,20.17
2018-06-05T05:18:34.114Z,15.00
2018-06-05T05:21:04.837Z,17.20
2018-06-05T05:23:35.377Z,17.33
2018-06-05T05:26:05.986Z,16.87
2018-06-05T05:28:36.750Z,19.70
2018-06-05T05:31:07.274Z,18.63
2018-06-05T05:33:39.013Z,18.90
2018-06-05T05:36:09.594Z,17.77
2018-06-05T05:38:40.518Z,19.57
2018-06-05T05:41:11.358Z,17.60
2018-06-05T05:43:41.803Z,15.83
2018-06-05T05:46:12.463Z,15.93
2018-06-05T05:48:43.292Z,15.63
2018-06-05T05:51:13.889Z,14.37
2018-06-05T05:53:45.947Z,14.43
2018-06-05T05:56:16.609Z,13.17
2018-06-05T05:58:47.125Z,14.03
2018-06-05T06:01:17.982Z,14.80
2018-06-05T06:03:48.694Z,14.77
2018-06-05T06:06:19.165Z,16.13
2018-06-05T06:08:50.643Z,14.00
2018-06-05T06:11:21.045Z,15.03
2018-06-05T06:13:51.665Z,14.70
2018-06-05T06:16:22.319Z,16.77
2018-06-05T06:18:53.244Z,13.80
2018-06-05T06:21:24.083Z,15.10
2018-06-05T06:23:54.970Z,13.10
2018-06-05T06:26:25.737Z,13.60
2018-06-05T06:28:56.496Z,11.48
2018-06-05T06:31:26.931Z,12.97
2018-06-05T06:33:57.211Z,13.00
2018-06-05T06:36:27.751Z,12.97
2018-06-05T06:38:58.652Z,12.80
2018-06-05T06:41:29.199Z,13.63
2018-06-05T06:43:59.850Z,12.82
2018-06-05T06:46:30.468Z,13.30
2018-06-05T06:49:00.978Z,13.62
2018-06-05T06:51:31.476Z,13.00
2018-06-05T06:54:02.221Z,13.07
2018-06-05T06:56:32.860Z,13.40
2018-06-05T06:59:04.543Z,14.20
2018-06-05T07:01:35.286Z,11.80
2018-06-05T07:04:06.362Z,14.28
2018-06-05T07:06:36.846Z,12.57
2018-06-05T07:09:09.248Z,13.58
2018-06-05T07:11:39.864Z,11.90
2018-06-05T07:14:10.789Z,12.50
2018-06-05T07:16:41.279Z,10.87
2018-06-05T07:19:11.551Z,13.60
2018-06-05T07:21:42.130Z,12.70
2018-06-05T07:24:12.801Z,11.87
2018-06-05T07:26:43.849Z,11.50
2018-06-05T07:29:14.535Z,13.13
2018-06-05T07:31:45.117Z,14.30
2018-06-05T07:34:15.609Z,12.20
2018-06-05T07:36:46.148Z,11.10
2018-06-05T07:39:16.975Z,13.17
2018-06-05T07:41:47.612Z,12.10
2018-06-05T07:44:18.240Z,13.00
2018-06-05T07:46:48.639Z,11.27
2018-06-05T07:49:19.539Z,12.63
2018-06-05T07:51:51.255Z,13.80
2018-06-05T07:54:22.005Z,11.80
2018-06-05T07:56:52.536Z,13.00
2018-06-05T07:59:24.526Z,12.40
2018-06-05T08:01:55.125Z,13.90
2018-06-05T08:04:27.009Z,12.50
2018-06-05T08:06:58.312Z,12.05
2018-06-05T08:09:29.375Z,13.50
2018-06-05T08:11:59.955Z,13.03
2018-06-05T08:14:30.839Z,13.43
2018-06-05T08:17:01.200Z,14.03
2018-06-05T08:19:32.168Z,13.07
2018-06-05T08:22:02.831Z,12.90
2018-06-05T08:24:34.390Z,13.03
2018-06-05T08:27:04.600Z,12.60
2018-06-05T08:29:34.645Z,13.03
2018-06-05T08:32:05.284Z,15.38
2018-06-05T08:34:35.893Z,13.00
2018-06-05T08:37:07.081Z,13.97
2018-06-05T08:39:37.660Z,12.77
2018-06-05T08:42:08.819Z,12.47
2018-06-05T08:44:39.077Z,12.90
2018-06-05T08:47:10.272Z,12.40
2018-06-05T08:49:40.498Z,11.50
2018-06-05T08:52:11.162Z,12.70
2018-06-05T08:54:40.629Z,13.97
2018-06-05T08:57:12.069Z,11.63
2018-06-05T08:59:42.639Z,11.70
2018-06-05T09:02:13.378Z,13.10
2018-06-05T09:04:43.850Z,11.03
2018-06-05T09:07:14.483Z,12.80
2018-06-05T09:09:44.950Z,12.70
2018-06-05T09:12:15.440Z,13.73
2018-06-05T09:14:46.013Z,12.23
2018-06-05T09:17:17.640Z,11.57
2018-06-05T09:19:48.200Z,11.17
2018-06-05T09:22:19.959Z,11.87
2018-06-05T09:24:51.529Z,10.50
2018-06-05T09:27:22.088Z,11.60
2018-06-05T09:29:52.756Z,12.17
2018-06-05T09:32:23.556Z,11.97
2018-06-05T09:34:54.329Z,12.43
2018-06-05T09:37:25.643Z,12.10
2018-06-05T09:39:56.041Z,11.47
2018-06-05T09:42:26.613Z,10.67
2018-06-05T09:44:57.204Z,11.93
2018-06-05T09:47:28.517Z,12.27
2018-06-05T09:49:59.427Z,13.28
2018-06-05T09:52:30.485Z,12.27
2018-06-05T09:55:01.284Z,11.53
2018-06-05T09:57:33.129Z,11.77
2018-06-05T10:00:04.176Z,12.28
2018-06-05T10:02:34.757Z,11.10
2018-06-05T10:05:05.710Z,11.57
2018-06-05T10:07:36.017Z,13.17
2018-06-05T10:10:06.622Z,12.73
2018-06-05T10:12:37.883Z,12.40
2018-06-05T10:15:08.402Z,13.03
2018-06-05T10:17:38.952Z,12.23
2018-06-05T10:20:09.548Z,12.95
2018-06-05T10:22:40.454Z,12.07
2018-06-05T10:25:11.056Z,12.53
2018-06-05T10:27:41.794Z,11.80
2018-06-05T10:30:12.342Z,11.00
2018-06-05T10:32:44.055Z,11.50
2018-06-05T10:35:14.593Z,10.70
2018-06-05T10:37:45.253Z,10.87
2018-06-05T10:40:16.309Z,12.50
2018-06-05T10:42:46.799Z,11.20
2018-06-05T10:45:17.357Z,10.23
2018-06-05T10:47:48.239Z,11.23
2018-06-05T10:50:18.804Z,10.60
2018-06-05T10:52:49.059Z,10.90
2018-06-05T10:55:19.618Z,11.47
2018-06-05T10:57:51.043Z,10.73
2018-06-05T11:00:21.628Z,10.27
2018-06-05T11:02:52.656Z,10.40
2018-06-05T11:05:23.153Z,9.75
2018-06-05T11:07:53.793Z,10.50
2018-06-05T11:10:24.748Z,10.98
2018-06-05T11:12:55.595Z,10.87
2018-06-05T11:15:26.164Z,10.57
2018-06-05T11:17:56.704Z,11.23
2018-06-05T11:20:27.444Z,10.50
2018-06-05T11:22:58.179Z,11.15
2018-06-05T11:25:28.774Z,10.25
2018-06-05T11:27:59.496Z,10.10
2018-06-05T11:30:30.118Z,10.70
2018-06-05T11:33:00.845Z,10.80
2018-06-05T11:35:31.461Z,11.08
2018-06-05T11:38:02.062Z,10.43
2018-06-05T11:40:32.576Z,9.93
2018-06-05T11:43:02.785Z,9.88
2018-06-05T11:45:33.170Z,10.30
2018-06-05T11:48:04.844Z,9.48
2018-06-05T11:50:35.857Z,9.60
2018-06-05T11:53:06.655Z,9.58
2018-06-05T11:55:37.533Z,9.53
2018-06-05T11:58:08.298Z,9.78
2018-06-05T12:00:38.945Z,8.63
2018-06-05T12:03:09.147Z,9.55
2018-06-05T12:05:39.505Z,10.25
2018-06-05T12:08:11.137Z,9.40
2018-06-05T12:10:41.789Z,9.23
2018-06-05T12:13:12.518Z,9.10
2018-06-05T12:15:43.128Z,9.40
2018-06-05T12:18:13.800Z,9.35
2018-06-05T12:20:44.537Z,8.50
2018-06-05T12:23:15.237Z,8.35
2018-06-05T12:25:46.101Z,8.68
2018-06-05T12:28:17.332Z,8.38
2018-06-05T12:30:47.859Z,8.23
2018-06-05T12:33:18.741Z,9.10
2018-06-05T12:35:49.429Z,8.53
2018-06-05T12:38:21.130Z,9.08
2018-06-05T12:40:51.919Z,8.25
2018-06-05T12:43:22.375Z,8.78
2018-06-05T12:45:52.973Z,8.03
2018-06-05T12:48:23.687Z,8.48
2018-06-05T12:50:54.445Z,9.23
2018-06-05T12:53:25.354Z,9.93
2018-06-05T12:55:55.873Z,9.28
2018-06-05T12:58:26.404Z,8.05
2018-06-05T13:00:56.529Z,8.45
2018-06-05T13:03:26.578Z,8.13
2018-06-05T13:05:57.260Z,9.13
2018-06-05T13:08:27.917Z,8.23
2018-06-05T13:10:58.439Z,9.07
2018-06-05T13:13:29.280Z,9.00
2018-06-05T13:15:59.637Z,9.07
2018-06-05T13:18:30.033Z,7.80
2018-06-05T13:21:00.881Z,8.35
2018-06-05T13:23:31.531Z,8.45
2018-06-05T13:26:02.246Z,8.20
2018-06-05T13:28:33.293Z,7.70
2018-06-05T13:31:04.327Z,7.45
2018-06-05T13:33:34.831Z,8.23
2018-06-05T13:36:05.426Z,8.55
2018-06-05T13:38:36.288Z,9.75
2018-06-05T13:41:06.820Z,9.08
2018-06-05T13:43:37.345Z,9.38
2018-06-05T13:46:07.883Z,9.58
2018-06-05T13:48:38.645Z,10.35
2018-06-05T13:51:09.515Z,10.08
2018-06-05T13:53:40.024Z,9.25
2018-06-05T13:56:11.293Z,10.23
2018-06-05T13:58:41.775Z,10.58
2018-06-05T14:01:12.768Z,8.85
2018-06-05T14:03:43.292Z,9.00
2018-06-05T14:06:13.935Z,9.43
2018-06-05T14:08:44.452Z,8.40
2018-06-05T14:11:15.680Z,9.68
2018-06-05T14:13:46.824Z,9.98
2018-06-05T14:16:17.957Z,9.70
2018-06-05T14:18:49.029Z,11.78
2018-06-05T14:21:19.480Z,10.95
2018-06-05T14:23:50.754Z,10.93
2018-06-05T14:26:21.265Z,11.88
2018-06-05T14:28:52.104Z,10.30
2018-06-05T14:31:22.655Z,11.30
2018-06-05T14:33:53.772Z,10.85
2018-06-05T14:36:23.910Z,10.72
2018-06-05T14:38:54.440Z,10.15
2018-06-05T14:41:25.037Z,9.65
2018-06-05T14:43:55.713Z,10.82
2018-06-05T14:46:26.236Z,9.95
2018-06-05T14:48:57.848Z,10.10
2018-06-05T14:51:28.717Z,9.90
2018-06-05T14:53:59.273Z,9.30
2018-06-05T14:56:29.866Z,10.03
2018-06-05T14:59:00.483Z,9.13
2018-06-05T15:01:31.060Z,9.30
2018-06-05T15:04:01.687Z,9.48
2018-06-05T15:06:32.281Z,9.03
2018-06-05T15:09:03.018Z,8.90
2018-06-05T15:11:33.939Z,9.05
2018-06-05T15:14:04.488Z,9.68
2018-06-05T15:16:35.095Z,9.80
2018-06-05T15:19:05.892Z,11.05
2018-06-05T15:21:36.580Z,9.78
2018-06-05T15:24:07.325Z,9.60
2018-06-05T15:26:37.836Z,9.75
2018-06-05T15:29:08.461Z,9.33
2018-06-05T15:31:38.991Z,9.08
2018-06-05T15:34:09.565Z,10.00
2018-06-05T15:36:40.055Z,10.30
2018-06-05T15:39:10.911Z,10.20
2018-06-05T15:41:41.686Z,10.63
2018-06-05T15:44:12.344Z,10.13
2018-06-05T15:46:42.868Z,9.73
2018-06-05T15:49:13.417Z,10.50
2018-06-05T15:51:43.994Z,9.38
2018-06-05T15:54:14.564Z,10.05
2018-06-05T15:56:45.022Z,9.73
2018-06-05T15:59:15.601Z,10.05
2018-06-05T16:01:46.370Z,10.13
2018-06-05T16:04:17.227Z,11.08
2018-06-05T16:06:47.791Z,9.53
2018-06-05T16:09:18.680Z,10.65
2018-06-05T16:11:49.145Z,11.95
2018-06-05T16:14:19.880Z,11.40
2018-06-05T16:16:50.545Z,9.63
2018-06-05T16:19:21.199Z,9.23
2018-06-05T16:21:52.489Z,11.50
2018-06-05T16:24:23.122Z,9.78
2018-06-05T16:26:53.661Z,9.00
2018-06-05T16:29:25.488Z,9.63
2018-06-05T16:31:56.163Z,10.45
2018-06-05T16:34:26.677Z,9.75
2018-06-05T16:36:57.857Z,10.08
2018-06-05T16:39:29.105Z,9.30
2018-06-05T16:41:59.667Z,9.60
2018-06-05T16:44:30.392Z,10.48
2018-06-05T16:47:01.253Z,10.45
2018-06-05T16:49:32.980Z,10.03
2018-06-05T16:52:03.516Z,9.97
2018-06-05T16:54:34.032Z,10.55
2018-06-05T16:57:04.682Z,9.93
2018-06-05T16:59:35.694Z,9.38
2018-06-05T17:02:06.176Z,8.95
2018-06-05T17:04:37.806Z,8.80
2018-06-05T17:07:08.354Z,8.30
2018-06-05T17:09:38.938Z,9.38
2018-06-05T17:12:09.462Z,9.33
2018-06-05T17:14:40.021Z,8.45
2018-06-05T17:17:10.589Z,8.60
2018-06-05T17:19:41.734Z,8.20
2018-06-05T17:22:12.253Z,7.60
2018-06-05T17:24:42.876Z,8.70
2018-06-05T17:27:13.214Z,7.58
2018-06-05T17:29:43.807Z,8.28
2018-06-05T17:32:14.324Z,7.90
2018-06-05T17:34:44.839Z,8.38
2018-06-05T17:37:15.358Z,8.13
2018-06-05T17:39:46.111Z,7.58
2018-06-05T17:42:16.781Z,8.75
2018-06-05T17:44:46.977Z,8.35
2018-06-05T17:47:17.790Z,8.08
2018-06-05T17:49:48.668Z,8.40
2018-06-05T17:52:18.911Z,8.18
2018-06-05T17:54:50.342Z,7.85
2018-06-05T17:57:20.927Z,7.83
2018-06-05T17:59:52.500Z,8.85
2018-06-05T18:02:23.320Z,8.10
2018-06-05T18:04:54.521Z,7.90
2018-06-05T18:07:25.389Z,7.40
2018-06-05T18:09:55.952Z,8.60
2018-06-05T18:12:27.181Z,7.97
2018-06-05T18:14:57.843Z,7.60
2018-06-05T18:17:28.403Z,7.67
2018-06-05T18:19:59.304Z,6.83
2018-06-05T18:22:29.850Z,7.25
2018-06-05T18:25:00.380Z,7.60
2018-06-05T18:27:31.203Z,6.80
2018-06-05T18:30:02.205Z,7.53
2018-06-05T18:32:32.908Z,7.50
2018-06-05T18:35:05.220Z,7.47
2018-06-05T18:37:35.651Z,7.47
2018-06-05T18:40:07.270Z,7.22
2018-06-05T18:42:38.337Z,7.70
2018-06-05T18:45:08.959Z,7.30
2018-06-05T18:47:39.465Z,7.30
2018-06-05T18:50:10.404Z,7.20
2018-06-05T18:52:41.299Z,7.25
2018-06-05T18:55:12.806Z,8.03
2018-06-05T18:57:43.387Z,7.33
2018-06-05T19:00:13.978Z,7.83
2018-06-05T19:02:44.585Z,6.77
2018-06-05T19:05:15.161Z,7.53
2018-06-05T19:07:45.705Z,8.30
2018-06-05T19:10:16.936Z,7.60
2018-06-05T19:12:47.394Z,6.97
2018-06-05T19:15:18.236Z,7.10
2018-06-05T19:17:49.033Z,7.50
2018-06-05T19:20:19.883Z,7.40
2018-06-05T19:22:50.549Z,8.57
2018-06-05T19:25:21.070Z,7.57
2018-06-05T19:27:52.667Z,6.85
2018-06-05T19:30:23.241Z,7.87
2018-06-05T19:32:53.760Z,6.80
2018-06-05T19:35:24.314Z,7.03
2018-06-05T19:37:55.077Z,6.80
2018-06-05T19:40:26.284Z,6.90
2018-06-05T19:42:56.841Z,8.00
2018-06-05T19:45:27.426Z,7.60
2018-06-05T19:47:57.957Z,7.67
2018-06-05T19:50:28.867Z,7.47
2018-06-05T19:52:59.373Z,7.30
2018-06-05T19:55:29.967Z,6.47
2018-06-05T19:58:00.789Z,7.12
2018-06-05T20:00:31.728Z,6.70
2018-06-05T20:03:02.202Z,7.67
2018-06-05T20:05:33.227Z,6.97
2018-06-05T20:08:03.697Z,6.77
2018-06-05T20:10:35.268Z,7.20
2018-06-05T20:13:06.224Z,6.83
2018-06-05T20:15:36.732Z,8.07
2018-06-05T20:18:07.213Z,7.37
2018-06-05T20:20:38.818Z,6.70
2018-06-05T20:23:09.348Z,6.75
2018-06-05T20:25:39.876Z,7.13
2018-06-05T20:28:10.433Z,6.80
2018-06-05T20:30:40.962Z,7.53
2018-06-05T20:33:11.422Z,7.83
2018-06-05T20:35:41.973Z,7.30
2018-06-05T20:38:12.681Z,7.60
2018-06-05T20:40:43.715Z,8.07
2018-06-05T20:43:14.423Z,7.17
2018-06-05T20:45:45.038Z,7.80
2018-06-05T20:48:15.868Z,7.60
2018-06-05T20:50:46.512Z,8.20
2018-06-05T20:53:17.359Z,7.30
2018-06-05T20:55:48.335Z,7.10
2018-06-05T20:58:18.873Z,7.63
2018-06-05T21:00:51.010Z,7.80
2018-06-05T21:03:22.351Z,7.47
2018-06-05T21:05:53.507Z,6.53
2018-06-05T21:08:24.289Z,7.33
2018-06-05T21:10:54.828Z,7.50
2018-06-05T21:13:25.265Z,7.80
2018-06-05T21:15:57.186Z,7.20
2018-06-05T21:18:27.645Z,6.90
2018-06-05T21:20:58.513Z,7.30
2018-06-05T21:23:29.011Z,8.17
2018-06-05T21:25:59.517Z,7.95
2018-06-05T21:28:29.995Z,7.03
2018-06-05T21:31:00.506Z,7.50
2018-06-05T21:33:31.019Z,8.27
2018-06-05T21:36:01.515Z,7.78
2018-06-05T21:38:31.986Z,7.63
2018-06-05T21:41:02.543Z,8.63
2018-06-05T21:43:33.039Z,7.73
2018-06-05T21:46:03.665Z,8.33
2018-06-05T21:48:34.809Z,8.60
2018-06-05T21:51:05.401Z,8.20
2018-06-05T21:53:35.837Z,8.43
2018-06-05T21:56:06.524Z,8.88
2018-06-05T21:58:37.222Z,8.23
2018-06-05T22:01:07.764Z,9.08
2018-06-05T22:03:38.269Z,8.77
2018-06-05T22:06:08.746Z,8.65
2018-06-05T22:08:39.781Z,8.07
2018-06-05T22:11:10.286Z,8.98
2018-06-05T22:13:40.814Z,8.90
2018-06-05T22:16:11.645Z,8.57
2018-06-05T22:18:42.609Z,9.27
2018-06-05T22:21:13.200Z,9.87
2018-06-05T22:23:43.889Z,8.33
2018-06-05T22:26:14.602Z,8.03
2018-06-05T22:28:45.074Z,9.43
2018-06-05T22:31:15.572Z,8.30
2018-06-05T22:33:46.266Z,8.80
2018-06-05T22:36:17.461Z,8.93
2018-06-05T22:38:47.996Z,10.20
2018-06-05T22:41:18.448Z,9.57
2018-06-05T22:43:49.123Z,9.07
2018-06-05T22:46:19.627Z,9.27
2018-06-05T22:48:50.099Z,10.20
2018-06-05T22:51:20.583Z,9.70
2018-06-05T22:53:50.839Z,8.87
2018-06-05T22:56:21.413Z,9.07
2018-06-05T22:58:51.945Z,9.50
2018-06-05T23:01:22.660Z,10.40
2018-06-05T23:03:53.123Z,9.60
2018-06-05T23:06:23.335Z,10.15
2018-06-05T23:08:53.972Z,10.47
2018-06-05T23:11:24.531Z,9.98
2018-06-05T23:13:54.986Z,10.30
2018-06-05T23:16:26.033Z,9.63
2018-06-05T23:18:56.569Z,9.57
2018-06-05T23:21:26.690Z,9.90
2018-06-05T23:23:57.576Z,10.30
2018-06-05T23:26:28.075Z,9.37
2018-06-05T23:28:58.938Z,10.20
2018-06-05T23:31:29.661Z,10.70
2018-06-05T23:34:00.688Z,10.17
2018-06-05T23:36:31.174Z,10.67
2018-06-05T23:39:02.276Z,9.77
2018-06-05T23:41:32.750Z,9.63
2018-06-05T23:44:03.253Z,10.43
2018-06-05T23:46:33.718Z,9.70
2018-06-05T23:49:04.296Z,10.17
2018-06-05T23:51:35.890Z,10.13
2018-06-05T23:54:06.118Z,10.37
2018-06-05T23:56:36.541Z,10.60
2018-06-05T23:59:07.097Z,10.73
